Terminal Aerodrome Forecast
Issued by NWS Des Moines, IA

Home | Current Version | Previous Version | Text Only | Print | Product List | Glossary On
Versions: 1 2 3 4 5 6 7 8 9 10 11 12 13 14 15 16 17 18 19 20 21 22 23 24 25 26 27 28 29 30 31 32 33 34 35 36 37 38 39 40 41 42 43 44 45 46
000
FTUS43 KDMX 211737
TAFALO
TAF
KALO 211737Z 2118/2218 17014KT 6SM BR OVC014
     FM220000 16013KT 5SM BR OVC009
     FM220400 15017KT 2SM -DZ BR OVC005
     FM221100 13016KT 1SM -RA BR OVC004
     FM221600 12016KT 1SM -RASN BR OVC004=

USA.gov is the U.S. government's official web portal to all federal, state and local government web resources and services.